Time;durP1;ratioP1;P1;durP2;ratioP2;P2;SDS_P1;SDS_P2;PMS_P1;PMS_P2;Temp;Humidity;BMP_temperature;BMP_pressure;BME280_temperature;BME280_humidity;BME280_pressure;Samples;Min_cycle;Max_cycle;Signal;HPM_P1;HPM_P2
2024/01/24 00:02:15;;;;;;;4.10;2.40;;;12.70;95.00;;;;;;5071854;28;20386;-32
2024/01/24 00:04:40;;;;;;;5.82;2.30;;;12.80;95.00;;;;;;5071674;28;20059;-38
2024/01/24 00:07:06;;;;;;;4.90;2.33;;;12.80;95.00;;;;;;5071669;28;20028;-34
2024/01/24 00:09:33;;;;;;;5.13;2.05;;;12.80;95.00;;;;;;5071698;28;20089;-33
2024/01/24 00:11:59;;;;;;;5.30;2.15;;;12.80;94.90;;;;;;5071517;28;20040;-34
2024/01/24 00:14:25;;;;;;;8.60;2.92;;;12.80;94.80;;;;;;5070331;28;20024;-34
2024/01/24 00:16:51;;;;;;;5.05;2.17;;;12.90;94.80;;;;;;5071558;28;20040;-34
2024/01/24 00:19:16;;;;;;;4.75;2.05;;;12.90;94.70;;;;;;5071561;28;20142;-34
2024/01/24 00:21:42;;;;;;;3.05;1.77;;;12.90;94.60;;;;;;5071554;28;20024;-34
2024/01/24 00:24:08;;;;;;;4.13;1.83;;;13.00;94.60;;;;;;5071366;28;20028;-34
2024/01/24 00:26:36;;;;;;;6.07;2.10;;;13.00;94.60;;;;;;5071839;28;20100;-34
2024/01/24 00:29:02;;;;;;;3.38;1.80;;;13.00;94.50;;;;;;5071464;28;20040;-34
2024/01/24 00:31:27;;;;;;;4.43;1.70;;;13.00;94.40;;;;;;5071720;28;20142;-35
2024/01/24 00:33:53;;;;;;;4.63;1.75;;;13.00;94.40;;;;;;5071162;28;20076;-33
2024/01/24 00:36:19;;;;;;;3.88;1.60;;;13.10;94.30;;;;;;5071386;28;20104;-35
2024/01/24 00:38:44;;;;;;;3.53;1.58;;;13.10;94.30;;;;;;5071275;28;20477;-34
2024/01/24 00:41:10;;;;;;;3.95;1.25;;;13.10;94.10;;;;;;5071462;28;20038;-34
2024/01/24 00:43:36;;;;;;;3.10;1.20;;;13.10;94.10;;;;;;5071385;28;20461;-34
2024/01/24 00:46:01;;;;;;;2.38;1.10;;;13.10;94.00;;;;;;5071407;28;20032;-33
2024/01/24 00:48:27;;;;;;;1.30;1.20;;;13.20;94.00;;;;;;5071364;28;20374;-34
2024/01/24 00:50:53;;;;;;;2.17;1.30;;;13.20;93.90;;;;;;5071283;28;20054;-34
2024/01/24 00:53:20;;;;;;;3.35;1.20;;;13.20;93.90;;;;;;5071450;28;20038;-34
2024/01/24 00:55:46;;;;;;;3.80;1.23;;;13.20;93.80;;;;;;5071173;28;20035;-34
2024/01/24 00:58:12;;;;;;;3.00;1.10;;;13.20;93.80;;;;;;5071101;28;20031;-35
2024/01/24 01:00:37;;;;;;;3.25;1.25;;;13.20;93.80;;;;;;5071151;28;20388;-34
2024/01/24 01:03:04;;;;;;;2.60;1.20;;;13.10;93.80;;;;;;5071251;28;20025;-34
2024/01/24 01:05:29;;;;;;;3.42;1.25;;;13.10;93.80;;;;;;5071336;28;20032;-34
2024/01/24 01:07:55;;;;;;;1.95;1.05;;;13.10;93.80;;;;;;5071131;28;20012;-33
2024/01/24 01:10:20;;;;;;;2.30;1.10;;;13.10;93.80;;;;;;5071145;28;20078;-34
2024/01/24 01:12:46;;;;;;;1.92;1.17;;;13.20;93.90;;;;;;5071330;28;20028;-33
2024/01/24 01:15:12;;;;;;;2.78;1.10;;;13.20;93.90;;;;;;5071172;28;20080;-36
2024/01/24 01:17:37;;;;;;;2.20;1.02;;;13.10;93.90;;;;;;5070959;28;20107;-34
2024/01/24 01:20:05;;;;;;;0.90;0.90;;;13.10;94.00;;;;;;5071002;28;20036;-34
2024/01/24 01:22:30;;;;;;;2.08;0.95;;;13.10;94.00;;;;;;5071248;28;20446;-39
2024/01/24 01:24:56;;;;;;;2.08;1.13;;;13.10;94.10;;;;;;5069508;28;20029;-36
2024/01/24 01:27:22;;;;;;;1.20;0.93;;;13.00;94.20;;;;;;5069567;28;20037;-36
2024/01/24 01:29:48;;;;;;;1.65;1.20;;;13.00;94.20;;;;;;5070825;28;20096;-40
2024/01/24 01:32:14;;;;;;;1.73;1.17;;;13.00;94.40;;;;;;5070900;28;20016;-40
2024/01/24 01:34:40;;;;;;;1.33;1.10;;;12.90;94.50;;;;;;5070575;28;20091;-35
2024/01/24 01:37:05;;;;;;;2.60;1.20;;;12.90;94.60;;;;;;5073017;28;20025;-33
2024/01/24 01:39:31;;;;;;;1.30;1.20;;;12.80;94.90;;;;;;5074616;28;20396;-38
2024/01/24 01:41:57;;;;;;;2.08;1.27;;;12.80;95.10;;;;;;5074358;28;20043;-35
2024/01/24 01:44:22;;;;;;;1.52;1.15;;;12.70;95.10;;;;;;5074954;28;20057;-33
2024/01/24 01:46:50;;;;;;;1.85;1.27;;;12.60;95.30;;;;;;5074344;28;20096;-37
2024/01/24 01:49:15;;;;;;;1.10;1.00;;;12.60;95.50;;;;;;5074261;28;20032;-33
2024/01/24 01:51:41;;;;;;;1.42;1.17;;;12.60;95.70;;;;;;5074433;28;20036;-35
2024/01/24 01:54:13;;;;;;;1.85;1.30;;;12.50;95.80;;;;;;5072725;28;20396;-34
2024/01/24 01:56:39;;;;;;;1.48;1.38;;;12.50;96.00;;;;;;5073991;28;20024;-34
2024/01/24 01:59:05;;;;;;;1.60;1.50;;;12.50;96.30;;;;;;5073889;28;20389;-34
2024/01/24 02:01:31;;;;;;;2.97;1.67;;;12.50;96.20;;;;;;5073448;28;20020;-34
2024/01/24 02:03:58;;;;;;;1.50;1.40;;;12.50;96.20;;;;;;5072504;28;20633;-33
2024/01/24 02:06:24;;;;;;;2.42;1.90;;;12.50;96.40;;;;;;5073885;28;20024;-34
2024/01/24 02:08:49;;;;;;;1.95;1.85;;;12.40;96.60;;;;;;5073811;28;20032;-37
2024/01/24 02:11:16;;;;;;;2.78;1.90;;;12.40;96.70;;;;;;5074083;28;20570;-40
2024/01/24 02:13:42;;;;;;;3.33;1.90;;;12.40;96.60;;;;;;5074032;28;20536;-34
2024/01/24 02:16:09;;;;;;;2.30;2.10;;;12.40;96.70;;;;;;5073752;28;20107;-33
2024/01/24 02:18:34;;;;;;;2.00;1.90;;;12.40;97.00;;;;;;5073904;28;20507;-34
2024/01/24 02:21:00;;;;;;;2.10;2.00;;;12.40;97.00;;;;;;5073788;28;20029;-35
2024/01/24 02:23:26;;;;;;;2.03;1.80;;;12.40;97.10;;;;;;5073674;28;20024;-34
2024/01/24 02:25:53;;;;;;;3.45;2.40;;;12.40;97.10;;;;;;5073829;28;20048;-35
2024/01/24 02:28:19;;;;;;;1.88;1.70;;;12.40;97.10;;;;;;5073305;28;20024;-35
2024/01/24 02:30:45;;;;;;;2.10;1.90;;;12.30;97.10;;;;;;5073424;28;20385;-34
2024/01/24 02:33:11;;;;;;;1.88;1.75;;;12.30;97.20;;;;;;5073276;28;20085;-35
2024/01/24 02:35:37;;;;;;;1.88;1.77;;;12.40;97.20;;;;;;5072075;28;20060;-34
2024/01/24 02:38:02;;;;;;;1.88;1.77;;;12.40;97.30;;;;;;5073366;28;20104;-35
2024/01/24 02:40:28;;;;;;;1.70;1.60;;;12.40;97.30;;;;;;5073288;28;20502;-34
2024/01/24 02:42:54;;;;;;;1.50;1.40;;;12.40;97.40;;;;;;5073190;28;20044;-34
2024/01/24 02:45:19;;;;;;;2.33;1.50;;;12.40;97.40;;;;;;5073111;28;20024;-34
2024/01/24 02:47:45;;;;;;;1.30;1.20;;;12.40;97.40;;;;;;5072077;28;20060;-35
2024/01/24 02:50:12;;;;;;;1.63;1.30;;;12.40;97.40;;;;;;5073488;28;20028;-36
2024/01/24 02:52:40;;;;;;;2.67;1.35;;;12.40;97.40;;;;;;5072987;28;20099;-34
2024/01/24 02:55:07;;;;;;;1.40;1.30;;;12.40;97.30;;;;;;5073148;28;20017;-32
2024/01/24 02:57:33;;;;;;;1.63;1.20;;;12.40;97.30;;;;;;5072792;28;20025;-34
2024/01/24 02:59:59;;;;;;;1.42;1.33;;;12.50;97.30;;;;;;5072713;28;20038;-33
2024/01/24 03:02:24;;;;;;;1.30;1.02;;;12.50;97.20;;;;;;5071562;28;20457;-34
2024/01/24 03:04:50;;;;;;;2.03;1.30;;;12.50;97.10;;;;;;5072742;28;20020;-34
2024/01/24 03:07:15;;;;;;;2.78;1.40;;;12.50;97.00;;;;;;5072758;28;20025;-33
2024/01/24 03:09:41;;;;;;;4.03;1.33;;;12.50;96.80;;;;;;5071391;28;20066;-34
2024/01/24 03:12:07;;;;;;;2.90;1.33;;;12.60;96.70;;;;;;5072626;28;20388;-34
2024/01/24 03:14:32;;;;;;;2.72;1.40;;;12.60;96.60;;;;;;5072843;28;20028;-35
2024/01/24 03:16:58;;;;;;;1.65;1.23;;;12.60;96.50;;;;;;5072512;28;20029;-33
2024/01/24 03:19:24;;;;;;;2.50;1.27;;;12.50;96.30;;;;;;5072882;28;20382;-34
2024/01/24 03:21:50;;;;;;;1.40;1.30;;;12.50;96.30;;;;;;5072389;28;20021;-35
2024/01/24 03:24:17;;;;;;;1.65;1.33;;;12.50;96.20;;;;;;5072266;28;20039;-34
2024/01/24 03:26:42;;;;;;;4.88;2.08;;;12.50;96.20;;;;;;5072608;28;20078;-35
2024/01/24 03:29:08;;;;;;;2.72;1.52;;;12.50;96.10;;;;;;5072357;28;20032;-34
2024/01/24 03:31:34;;;;;;;1.90;1.35;;;12.50;95.90;;;;;;5072478;28;20024;-34
2024/01/24 03:33:59;;;;;;;3.30;1.23;;;12.50;95.80;;;;;;5072162;28;20127;-35
2024/01/24 03:36:25;;;;;;;3.38;1.40;;;12.50;95.70;;;;;;5072296;28;20085;-34
2024/01/24 03:38:50;;;;;;;2.83;1.13;;;12.50;95.20;;;;;;5072189;28;20025;-35
2024/01/24 03:41:16;;;;;;;2.97;1.33;;;12.50;95.00;;;;;;5072473;28;20036;-34
2024/01/24 03:43:42;;;;;;;4.95;1.35;;;12.50;94.90;;;;;;5070752;28;20496;-34
2024/01/24 03:46:08;;;;;;;5.38;1.30;;;12.50;94.70;;;;;;5071984;28;20033;-35
2024/01/24 03:48:33;;;;;;;3.83;1.38;;;12.50;94.30;;;;;;5072038;28;20020;-34
2024/01/24 03:50:59;;;;;;;6.82;1.77;;;12.50;94.10;;;;;;5071909;28;20025;-34
2024/01/24 03:53:25;;;;;;;7.03;1.85;;;12.50;94.10;;;;;;5072029;28;20025;-32
2024/01/24 03:55:51;;;;;;;7.35;1.55;;;12.50;93.80;;;;;;5071983;28;20036;-35
2024/01/24 03:58:16;;;;;;;5.00;1.63;;;12.40;93.80;;;;;;5072000;28;20108;-35
2024/01/24 04:00:42;;;;;;;7.60;1.98;;;12.40;93.60;;;;;;5070293;28;20024;-35
2024/01/24 04:03:08;;;;;;;7.43;1.58;;;12.40;93.40;;;;;;5071657;28;20032;-34
2024/01/24 04:05:33;;;;;;;7.05;1.67;;;12.40;93.50;;;;;;5071901;28;20017;-34
2024/01/24 04:07:59;;;;;;;8.50;1.77;;;12.40;93.50;;;;;;5071660;28;20029;-34
2024/01/24 04:10:24;;;;;;;6.15;1.88;;;12.40;93.50;;;;;;5071756;28;20074;-34
2024/01/24 04:12:50;;;;;;;10.30;2.03;;;12.40;93.50;;;;;;5071933;28;20036;-35
2024/01/24 04:15:16;;;;;;;11.18;2.08;;;12.40;93.20;;;;;;5071657;28;20028;-34
2024/01/24 04:17:42;;;;;;;12.23;2.08;;;12.30;93.00;;;;;;5071579;28;20411;-34
2024/01/24 04:20:08;;;;;;;9.93;2.28;;;12.30;92.90;;;;;;5071583;28;20033;-35
2024/01/24 04:22:33;;;;;;;14.13;2.78;;;12.30;92.70;;;;;;5071953;28;20021;-35
2024/01/24 04:25:00;;;;;;;13.10;2.75;;;12.30;92.60;;;;;;5071421;28;20047;-33
2024/01/24 04:27:26;;;;;;;15.70;3.10;;;12.20;92.40;;;;;;5071321;28;20012;-31
2024/01/24 04:29:51;;;;;;;15.85;3.42;;;12.20;92.40;;;;;;5072057;28;20027;-35
2024/01/24 04:32:17;;;;;;;17.80;2.83;;;12.10;92.40;;;;;;5071700;28;20472;-34
2024/01/24 04:34:44;;;;;;;16.30;2.92;;;12.10;92.30;;;;;;5071175;28;20052;-34
2024/01/24 04:37:10;;;;;;;17.60;3.08;;;12.10;92.20;;;;;;5071810;28;20021;-35
2024/01/24 04:39:35;;;;;;;26.73;4.45;;;12.00;92.10;;;;;;5071434;28;20082;-35
2024/01/24 04:42:01;;;;;;;16.88;3.80;;;12.00;92.00;;;;;;5071627;28;20073;-35
2024/01/24 04:44:26;;;;;;;17.67;4.35;;;12.00;91.80;;;;;;5071323;28;20370;-34
2024/01/24 04:46:52;;;;;;;13.90;3.05;;;12.00;91.70;;;;;;5071453;28;20024;-35
2024/01/24 04:49:17;;;;;;;23.02;4.38;;;11.90;91.70;;;;;;5071189;28;20158;-34
2024/01/24 04:51:43;;;;;;;27.15;5.15;;;11.90;91.60;;;;;;5071703;28;20393;-36
2024/01/24 04:54:09;;;;;;;22.55;3.88;;;12.00;91.70;;;;;;5071143;28;20028;-34
2024/01/24 04:56:35;;;;;;;17.30;4.10;;;11.90;91.30;;;;;;5071297;28;20268;-35
2024/01/24 04:59:00;;;;;;;20.23;4.47;;;12.00;91.30;;;;;;5071319;28;20108;-34
2024/01/24 05:01:26;;;;;;;24.80;4.70;;;11.90;91.20;;;;;;5071296;28;20399;-34
2024/01/24 05:03:52;;;;;;;22.67;4.93;;;11.90;91.00;;;;;;5071363;28;20116;-34
2024/01/24 05:06:18;;;;;;;21.90;4.72;;;11.90;91.00;;;;;;5071378;28;20480;-34
2024/01/24 05:08:45;;;;;;;26.38;5.13;;;11.90;91.10;;;;;;5071105;28;20059;-34
2024/01/24 05:11:10;;;;;;;24.55;4.43;;;11.90;90.80;;;;;;5072238;28;20123;-33
2024/01/24 05:13:36;;;;;;;25.20;4.70;;;11.90;91.00;;;;;;5075192;28;20496;-33
2024/01/24 05:16:03;;;;;;;21.40;4.85;;;11.90;90.70;;;;;;5074846;28;20031;-34
2024/01/24 05:18:28;;;;;;;24.70;5.07;;;11.90;90.80;;;;;;5075013;28;20024;-33
2024/01/24 05:20:54;;;;;;;22.83;5.22;;;11.90;90.80;;;;;;5074848;28;20054;-33
2024/01/24 05:23:20;;;;;;;21.35;4.45;;;11.80;90.80;;;;;;5074897;28;20183;-33
2024/01/24 05:25:45;;;;;;;22.60;4.15;;;11.80;90.50;;;;;;5074504;28;20043;-33
2024/01/24 05:28:12;;;;;;;19.33;4.57;;;11.80;90.50;;;;;;5074455;28;20074;-33
2024/01/24 05:30:38;;;;;;;27.63;5.20;;;11.70;90.50;;;;;;5074891;28;20067;-32
2024/01/24 05:33:04;;;;;;;29.70;5.50;;;11.80;90.30;;;;;;5074646;28;20109;-33
2024/01/24 05:35:29;;;;;;;25.83;4.90;;;11.80;90.00;;;;;;5074301;28;20040;-34
2024/01/24 05:37:55;;;;;;;31.33;5.53;;;11.70;90.00;;;;;;5074752;28;20104;-34
2024/01/24 05:40:21;;;;;;;25.50;4.35;;;11.70;89.80;;;;;;5074402;28;20033;-34
2024/01/24 05:42:47;;;;;;;33.17;6.55;;;11.70;89.80;;;;;;5074598;28;20023;-33
2024/01/24 05:45:13;;;;;;;27.38;5.50;;;11.60;89.60;;;;;;5074617;28;20380;-35
2024/01/24 05:47:39;;;;;;;29.67;5.55;;;11.60;89.00;;;;;;5074365;28;20493;-34
2024/01/24 05:50:14;;;;;;;22.75;5.18;;;11.60;89.00;;;;;;5074597;28;20078;-34
2024/01/24 05:52:43;;;;;;;32.85;5.80;;;11.60;89.10;;;;;;5074247;28;20028;-34
2024/01/24 05:55:12;;;;;;;26.98;5.45;;;11.60;88.90;;;;;;5074165;28;20021;-34
2024/01/24 05:57:41;;;;;;;27.23;5.82;;;11.60;89.10;;;;;;5074052;28;20025;-33
2024/01/24 06:00:14;;;;;;;31.15;6.05;;;11.60;88.60;;;;;;5074079;28;20054;-35
2024/01/24 06:02:40;;;;;;;23.30;5.35;;;11.60;88.20;;;;;;5074217;28;20358;-34
2024/01/24 06:05:07;;;;;;;31.27;6.00;;;11.60;88.40;;;;;;5073858;28;20021;-35
2024/01/24 06:07:33;;;;;;;30.65;6.25;;;11.60;88.50;;;;;;5073982;28;20031;-35
2024/01/24 06:09:59;;;;;;;31.50;5.70;;;11.60;88.10;;;;;;5073864;28;20024;-33
2024/01/24 06:12:24;;;;;;;34.25;6.25;;;11.60;88.20;;;;;;5074318;28;20086;-36
2024/01/24 06:14:51;;;;;;;33.67;5.90;;;11.60;88.00;;;;;;5074082;28;20020;-34
2024/01/24 06:17:17;;;;;;;28.13;6.28;;;11.60;87.30;;;;;;5074090;28;20021;-35
2024/01/24 06:19:43;;;;;;;30.55;6.47;;;11.60;87.40;;;;;;5073690;28;20389;-35
2024/01/24 06:22:09;;;;;;;26.85;5.20;;;11.60;87.00;;;;;;5073542;28;20024;-34
2024/01/24 06:24:35;;;;;;;34.65;7.25;;;11.60;86.80;;;;;;5073888;28;20024;-33
2024/01/24 06:27:01;;;;;;;26.08;5.70;;;11.50;86.50;;;;;;5073650;28;20021;-34
2024/01/24 06:29:27;;;;;;;37.28;6.75;;;11.50;86.70;;;;;;5073576;28;20362;-39
2024/01/24 06:31:53;;;;;;;22.95;5.85;;;11.50;86.60;;;;;;5073746;28;20032;-34
2024/01/24 06:34:18;;;;;;;33.85;6.82;;;11.50;87.00;;;;;;5073232;28;20501;-34
2024/01/24 06:36:44;;;;;;;34.35;6.32;;;11.50;86.80;;;;;;5073478;28;20428;-35
2024/01/24 06:39:09;;;;;;;35.45;7.07;;;11.40;87.40;;;;;;5073328;28;20029;-34
2024/01/24 06:41:35;;;;;;;37.75;7.15;;;11.40;86.90;;;;;;5073267;28;20040;-34
2024/01/24 06:44:05;;;;;;;30.42;6.82;;;11.40;87.00;;;;;;5073034;28;20027;-34
2024/01/24 06:46:31;;;;;;;41.10;7.43;;;11.40;87.10;;;;;;5071893;28;20031;-33
2024/01/24 06:48:56;;;;;;;30.90;6.97;;;11.30;87.40;;;;;;5071927;28;20013;-34
2024/01/24 06:51:22;;;;;;;32.92;6.93;;;11.20;87.60;;;;;;5073194;28;20025;-34
2024/01/24 06:53:47;;;;;;;34.38;6.60;;;11.20;87.40;;;;;;5072942;28;20024;-33
2024/01/24 06:56:13;;;;;;;32.88;6.78;;;11.10;87.60;;;;;;5072997;28;20036;-34
2024/01/24 06:58:40;;;;;;;34.65;7.05;;;11.10;87.70;;;;;;5072768;28;20036;-34
2024/01/24 07:01:06;;;;;;;30.17;6.53;;;11.00;87.80;;;;;;5073201;28;20021;-33
2024/01/24 07:03:32;;;;;;;38.75;7.68;;;11.00;88.00;;;;;;5072726;28;20036;-34
2024/01/24 07:05:58;;;;;;;26.50;6.60;;;10.90;87.50;;;;;;5072919;28;20020;-34
2024/01/24 07:08:23;;;;;;;32.70;6.38;;;10.90;87.70;;;;;;5072860;28;20027;-35
2024/01/24 07:10:49;;;;;;;29.65;6.43;;;10.90;87.70;;;;;;5072558;28;20029;-33
2024/01/24 07:13:15;;;;;;;34.95;7.55;;;10.90;87.70;;;;;;5072853;28;20024;-35
2024/01/24 07:15:42;;;;;;;34.10;7.57;;;10.80;86.60;;;;;;5072825;28;20039;-34
2024/01/24 07:18:09;;;;;;;40.22;6.53;;;10.80;86.60;;;;;;5072498;28;20025;-35
2024/01/24 07:20:34;;;;;;;34.78;6.65;;;10.70;86.10;;;;;;5071500;28;20028;-35
2024/01/24 07:23:01;;;;;;;35.83;7.10;;;10.70;86.50;;;;;;5072434;28;20028;-34
2024/01/24 07:25:27;;;;;;;37.03;7.75;;;10.60;86.30;;;;;;5072697;28;20021;-34
2024/01/24 07:27:53;;;;;;;37.35;6.80;;;10.60;86.40;;;;;;5072252;28;20012;-34
2024/01/24 07:30:19;;;;;;;36.45;7.35;;;10.60;86.10;;;;;;5072636;28;20524;-34
2024/01/24 07:32:45;;;;;;;35.28;7.22;;;10.60;86.10;;;;;;5072507;28;20477;-34
2024/01/24 07:35:10;;;;;;;37.25;7.85;;;10.60;85.70;;;;;;5071536;28;20049;-35
2024/01/24 07:37:36;;;;;;;40.53;6.90;;;10.50;85.80;;;;;;5072304;28;20025;-34
2024/01/24 07:40:02;;;;;;;29.88;7.30;;;10.50;85.70;;;;;;5072200;28;20036;-34
2024/01/24 07:42:29;;;;;;;36.42;7.07;;;10.50;85.60;;;;;;5072190;28;20048;-35
2024/01/24 07:44:54;;;;;;;31.65;6.97;;;10.50;85.50;;;;;;5072286;28;20487;-34
2024/01/24 07:47:20;;;;;;;30.15;6.00;;;10.40;85.50;;;;;;5072007;28;20025;-34
2024/01/24 07:49:46;;;;;;;38.00;6.72;;;10.40;85.80;;;;;;5072184;28;20021;-34
2024/01/24 07:52:12;;;;;;;35.60;6.68;;;10.40;85.50;;;;;;5071951;28;20073;-34
2024/01/24 07:54:37;;;;;;;41.13;8.23;;;10.40;85.50;;;;;;5071850;28;20021;-32
2024/01/24 07:57:03;;;;;;;35.72;7.78;;;10.30;85.60;;;;;;5071824;28;20029;-34
2024/01/24 07:59:30;;;;;;;31.45;6.07;;;10.30;84.90;;;;;;5072152;28;20031;-35
2024/01/24 08:01:55;;;;;;;39.75;7.53;;;10.30;85.20;;;;;;5071692;28;20099;-33
2024/01/24 08:04:21;;;;;;;34.40;7.18;;;10.30;84.90;;;;;;5071625;28;20048;-35
2024/01/24 08:06:47;;;;;;;41.53;7.40;;;10.30;85.40;;;;;;5071863;28;20016;-34
2024/01/24 08:09:13;;;;;;;33.47;7.28;;;10.30;84.70;;;;;;5071822;28;20024;-35
2024/01/24 08:11:39;;;;;;;36.35;6.45;;;10.30;84.60;;;;;;5072027;28;20368;-33
2024/01/24 08:14:05;;;;;;;40.53;6.82;;;10.20;84.90;;;;;;5070412;28;20031;-34
2024/01/24 08:16:31;;;;;;;31.30;6.22;;;10.30;84.90;;;;;;5071792;28;20431;-33
2024/01/24 08:19:00;;;;;;;44.42;7.13;;;10.20;84.10;;;;;;5071892;28;20487;-34
2024/01/24 08:21:27;;;;;;;51.88;9.30;;;10.30;84.40;;;;;;5072062;28;20488;-33
2024/01/24 08:23:53;;;;;;;28.50;6.65;;;10.30;83.40;;;;;;5071601;28;20017;-34
2024/01/24 08:26:18;;;;;;;35.67;7.22;;;10.30;83.20;;;;;;5071702;28;20529;-33
2024/01/24 08:28:44;;;;;;;40.38;7.55;;;10.30;83.10;;;;;;5071679;28;20020;-34
2024/01/24 08:31:10;;;;;;;38.67;7.53;;;10.30;82.60;;;;;;5071464;28;20100;-35
2024/01/24 08:33:36;;;;;;;41.13;7.22;;;10.30;82.80;;;;;;5071655;28;20139;-34
2024/01/24 08:36:02;;;;;;;31.23;6.07;;;10.30;82.20;;;;;;5071512;28;20441;-34
2024/01/24 08:38:28;;;;;;;36.30;7.43;;;10.40;82.60;;;;;;5071431;28;20033;-34
2024/01/24 08:40:54;;;;;;;32.75;6.28;;;10.40;81.30;;;;;;5071386;28;20087;-34
2024/01/24 08:43:19;;;;;;;34.47;6.55;;;10.40;81.60;;;;;;5071858;28;20086;-35
2024/01/24 08:45:45;;;;;;;29.42;6.65;;;10.40;81.50;;;;;;5071495;28;20150;-36
2024/01/24 08:48:10;;;;;;;32.67;6.93;;;10.40;81.70;;;;;;5074354;28;20365;-35
2024/01/24 08:50:36;;;;;;;37.40;7.20;;;10.40;81.50;;;;;;5075527;28;20025;-34
2024/01/24 08:53:02;;;;;;;31.55;5.80;;;10.40;81.20;;;;;;5075347;28;20021;-34
2024/01/24 08:55:28;;;;;;;29.55;6.32;;;10.50;81.40;;;;;;5075358;28;20055;-34
2024/01/24 08:57:54;;;;;;;29.75;6.07;;;10.50;81.30;;;;;;5075526;28;20059;-35
2024/01/24 09:00:19;;;;;;;31.52;5.80;;;10.50;81.30;;;;;;5075176;28;20120;-36
2024/01/24 09:02:46;;;;;;;27.63;6.07;;;10.60;81.40;;;;;;5075064;28;20020;-37
2024/01/24 09:05:12;;;;;;;30.02;5.82;;;10.60;81.40;;;;;;5075125;28;20024;-37
2024/01/24 09:07:38;;;;;;;25.10;5.38;;;10.70;81.10;;;;;;5075267;28;20083;-37
2024/01/24 09:10:04;;;;;;;29.27;5.75;;;10.70;81.20;;;;;;5075638;28;20099;-38
2024/01/24 09:12:30;;;;;;;27.92;5.68;;;10.70;81.50;;;;;;5075238;28;20020;-37
2024/01/24 09:14:56;;;;;;;36.20;6.95;;;10.70;81.30;;;;;;5074848;28;20362;-36
2024/01/24 09:17:21;;;;;;;35.20;6.28;;;10.70;80.70;;;;;;5074052;28;20099;-36
2024/01/24 09:19:47;;;;;;;29.55;5.95;;;10.70;80.80;;;;;;5074864;28;20021;-37
2024/01/24 09:22:13;;;;;;;26.52;5.40;;;10.80;80.90;;;;;;5074756;28;20557;-37
2024/01/24 09:24:38;;;;;;;24.88;5.40;;;10.70;80.60;;;;;;5074658;28;20029;-38
2024/01/24 09:27:04;;;;;;;33.25;6.18;;;10.70;80.60;;;;;;5073609;28;20017;-38
2024/01/24 09:29:30;;;;;;;28.75;6.28;;;10.80;80.10;;;;;;5074730;28;20135;-37
2024/01/24 09:31:57;;;;;;;20.85;5.63;;;10.80;80.30;;;;;;5074792;28;20024;-36
2024/01/24 09:34:26;;;;;;;33.22;6.05;;;10.80;80.60;;;;;;5074618;28;20040;-38
2024/01/24 09:36:54;;;;;;;30.17;6.20;;;10.80;80.50;;;;;;5074741;28;20134;-38
2024/01/24 09:39:21;;;;;;;33.63;6.68;;;10.80;80.30;;;;;;5074781;28;20020;-38
2024/01/24 09:41:51;;;;;;;25.48;5.82;;;10.80;80.10;;;;;;5073340;28;20021;-37
2024/01/24 09:44:17;;;;;;;30.10;6.40;;;10.80;80.20;;;;;;5074589;28;20531;-37
2024/01/24 09:46:43;;;;;;;28.55;6.28;;;10.80;79.90;;;;;;5074340;28;20380;-35
2024/01/24 09:49:10;;;;;;;36.88;6.70;;;10.80;79.50;;;;;;5074695;28;20025;-35
2024/01/24 09:51:37;;;;;;;34.22;6.55;;;10.90;79.40;;;;;;5074278;28;20028;-36
2024/01/24 09:54:08;;;;;;;35.60;6.72;;;10.90;78.90;;;;;;5074395;28;20028;-36
2024/01/24 09:56:36;;;;;;;40.08;7.15;;;10.90;78.50;;;;;;5073814;28;20074;-35
2024/01/24 09:59:03;;;;;;;31.17;6.32;;;10.90;78.50;;;;;;5074082;28;20072;-35
2024/01/24 10:01:32;;;;;;;37.20;8.07;;;11.00;78.40;;;;;;5072542;28;20040;-36
2024/01/24 10:04:00;;;;;;;30.13;5.97;;;10.90;78.60;;;;;;5073704;28;20024;-35
2024/01/24 10:06:29;;;;;;;34.60;6.53;;;10.90;78.30;;;;;;5074240;28;20491;-35
2024/01/24 10:08:56;;;;;;;27.15;6.18;;;11.00;78.30;;;;;;5074056;28;20428;-35
2024/01/24 10:11:22;;;;;;;29.23;6.50;;;11.00;78.50;;;;;;5074171;28;20016;-35
2024/01/24 10:13:48;;;;;;;31.27;7.03;;;11.00;78.30;;;;;;5073727;28;20499;-34
2024/01/24 10:16:13;;;;;;;35.58;6.88;;;11.10;77.90;;;;;;5073865;28;20020;-36
2024/01/24 10:18:39;;;;;;;29.50;5.25;;;11.10;77.80;;;;;;5073831;28;20112;-35
2024/01/24 10:21:05;;;;;;;25.50;5.35;;;11.10;78.30;;;;;;5073752;28;20020;-35
2024/01/24 10:23:31;;;;;;;22.13;5.28;;;11.20;78.10;;;;;;5073826;28;20143;-35
2024/01/24 10:26:00;;;;;;;25.25;6.32;;;11.20;78.20;;;;;;5073836;28;20130;-35
2024/01/24 10:28:26;;;;;;;24.73;5.32;;;11.30;78.00;;;;;;5073743;28;20025;-36
2024/01/24 10:30:51;;;;;;;26.42;5.95;;;11.30;77.90;;;;;;5073726;28;20472;-37
2024/01/24 10:33:17;;;;;;;31.08;6.00;;;11.30;78.00;;;;;;5073713;28;20529;-35
2024/01/24 10:35:43;;;;;;;25.63;6.07;;;11.40;77.60;;;;;;5073318;28;20024;-35
2024/01/24 10:38:12;;;;;;;27.52;6.95;;;11.40;76.90;;;;;;5073411;28;20130;-33
2024/01/24 10:40:41;;;;;;;33.42;6.65;;;11.40;77.00;;;;;;5073420;28;20099;-35
2024/01/24 10:43:14;;;;;;;31.83;6.53;;;11.40;77.00;;;;;;5073719;28;20155;-35
2024/01/24 10:45:43;;;;;;;28.83;5.80;;;11.40;77.20;;;;;;5073436;28;20024;-34
2024/01/24 10:48:10;;;;;;;31.13;6.63;;;11.40;77.40;;;;;;5073509;28;20024;-35
2024/01/24 10:50:37;;;;;;;37.78;7.45;;;11.40;77.70;;;;;;5073288;28;20052;-36
2024/01/24 10:53:03;;;;;;;27.52;6.82;;;11.40;76.90;;;;;;5073324;28;20456;-36
2024/01/24 10:55:31;;;;;;;27.77;5.30;;;11.30;76.80;;;;;;5072948;28;20024;-34
2024/01/24 10:57:57;;;;;;;30.35;5.95;;;11.40;77.40;;;;;;5073218;28;20017;-35
2024/01/24 11:00:28;;;;;;;30.48;6.50;;;11.40;77.60;;;;;;5073058;28;20028;-33
2024/01/24 11:02:54;;;;;;;29.33;5.78;;;11.40;77.00;;;;;;5072653;28;20040;-35
2024/01/24 11:05:43;;;;;;;27.83;6.07;;;11.40;76.60;;;;;;5072768;28;20055;-34
2024/01/24 11:08:26;;;;;;;37.72;7.03;;;11.50;77.00;;;;;;5072908;28;20021;-34
2024/01/24 11:10:55;;;;;;;30.27;6.38;;;11.50;77.30;;;;;;5072686;28;20404;-36
2024/01/24 11:13:24;;;;;;;30.08;5.53;;;11.60;76.40;;;;;;5072952;28;20362;-35
2024/01/24 11:15:54;;;;;;;37.25;7.65;;;11.60;76.10;;;;;;5072592;28;20048;-34
2024/01/24 11:18:21;;;;;;;31.17;6.20;;;11.60;75.70;;;;;;5072757;28;20067;-33
2024/01/24 11:20:48;;;;;;;30.33;6.80;;;11.60;75.80;;;;;;5072821;28;20023;-34
2024/01/24 11:23:33;;;;;;;29.98;6.45;;;11.50;75.70;;;;;;5072381;28;20516;-36
2024/01/24 11:25:59;;;;;;;26.27;5.95;;;11.60;76.20;;;;;;5072265;28;20027;-34
2024/01/24 11:28:25;;;;;;;30.38;5.75;;;11.60;76.20;;;;;;5072092;28;20449;-35
2024/01/24 11:30:50;;;;;;;34.70;6.22;;;11.60;76.50;;;;;;5072311;28;20036;-35
2024/01/24 11:33:18;;;;;;;26.65;5.30;;;11.60;76.00;;;;;;5070985;28;20368;-35
2024/01/24 11:35:46;;;;;;;32.78;6.60;;;11.70;76.10;;;;;;5072208;28;20120;-35
2024/01/24 11:38:22;;;;;;;26.25;5.57;;;11.70;75.90;;;;;;5072525;28;20392;-36
2024/01/24 11:40:50;;;;;;;29.52;6.25;;;11.70;76.00;;;;;;5072088;28;20071;-35
2024/01/24 11:43:27;;;;;;;31.10;6.43;;;11.70;75.90;;;;;;5072497;28;20465;-36
2024/01/24 11:45:58;;;;;;;32.78;7.75;;;11.70;75.00;;;;;;5072373;28;20536;-35
2024/01/24 11:48:28;;;;;;;34.15;8.43;;;11.70;75.60;;;;;;5072050;28;20107;-35
2024/01/24 11:51:01;;;;;;;28.52;6.38;;;11.70;75.50;;;;;;5072191;28;20028;-36
2024/01/24 11:53:27;;;;;;;;;;;11.70;75.30;;;;;;5072724;28;20021;-36
2024/01/24 11:56:03;;;;;;;31.10;7.05;;;11.70;74.70;;;;;;5071990;28;20350;-35
2024/01/24 11:58:29;;;;;;;25.60;6.88;;;11.70;75.10;;;;;;5071864;28;20024;-36
2024/01/24 12:01:13;;;;;;;21.67;5.10;;;11.70;75.40;;;;;;5072260;28;20020;-36
2024/01/24 12:03:46;;;;;;;24.38;5.55;;;11.70;75.90;;;;;;5071704;28;20027;-35
2024/01/24 12:06:12;;;;;;;28.48;6.18;;;11.70;75.90;;;;;;5071847;28;20043;-36
2024/01/24 12:08:38;;;;;;;19.60;4.55;;;11.80;75.60;;;;;;5072182;28;20228;-35
2024/01/24 12:11:06;;;;;;;34.25;5.88;;;11.80;75.70;;;;;;5071774;28;20027;-35
2024/01/24 12:13:33;;;;;;;33.20;6.28;;;11.90;75.40;;;;;;5071644;28;20036;-36
2024/01/24 12:16:01;;;;;;;27.52;5.72;;;11.90;74.40;;;;;;5071968;28;20491;-35
2024/01/24 12:18:30;;;;;;;30.35;6.18;;;12.00;75.00;;;;;;5071978;28;20031;-36
2024/01/24 12:20:56;;;;;;;30.58;6.22;;;12.00;74.80;;;;;;5071441;28;20016;-36
2024/01/24 12:23:22;;;;;;;21.15;5.35;;;12.00;73.40;;;;;;5071666;28;20028;-36
2024/01/24 12:25:48;;;;;;;26.15;5.88;;;12.00;74.30;;;;;;5071522;28;20060;-36
2024/01/24 12:28:14;;;;;;;21.00;4.90;;;12.00;73.20;;;;;;5071687;28;20048;-36
2024/01/24 12:30:47;;;;;;;24.85;5.50;;;11.90;73.40;;;;;;5071953;28;20078;-35
2024/01/24 12:33:16;;;;;;;30.90;6.15;;;11.90;73.50;;;;;;5071568;28;20118;-36
2024/01/24 12:35:45;;;;;;;27.52;5.30;;;11.90;73.40;;;;;;5071350;28;20027;-35
2024/01/24 12:38:11;;;;;;;26.73;5.93;;;11.90;73.30;;;;;;5071858;28;20040;-36